createdAt,value
2018-04-16T00:00:23.836Z,79.1
2018-04-16T00:01:33.381Z,79.38
2018-04-16T00:02:43.183Z,79.38
2018-04-16T00:03:53.272Z,79.38
2018-04-16T00:05:03.362Z,79.19
2018-04-16T00:06:13.185Z,79.28
2018-04-16T00:07:23.261Z,79.38
2018-04-16T00:08:33.398Z,79.38
2018-04-16T00:09:43.477Z,79.19
2018-04-16T00:10:53.570Z,79.19
2018-04-16T00:12:03.396Z,79.48
2018-04-16T00:13:13.226Z,79.28
2018-04-16T00:14:23.301Z,79.38
2018-04-16T00:15:33.397Z,79.28
2018-04-16T00:16:43.492Z,79.1
2018-04-16T00:17:53.565Z,79.48
2018-04-16T00:19:03.387Z,79.58
2018-04-16T00:20:13.474Z,79.48
2018-04-16T00:21:23.312Z,79.19
2018-04-16T00:22:33.386Z,78.9
2018-04-16T00:23:43.488Z,79
2018-04-16T00:24:53.574Z,79.19
2018-04-16T00:26:03.127Z,79
2018-04-16T00:27:12.961Z,79.19
2018-04-16T00:28:23.040Z,79.19
2018-04-16T00:29:32.880Z,79.19
2018-04-16T00:30:42.964Z,79.58
2018-04-16T00:31:53.054Z,79.48
2018-04-16T00:33:03.465Z,79.58
2018-04-16T00:34:13.567Z,79.58
2018-04-16T00:35:23.657Z,79.28
2018-04-16T00:36:33.748Z,79.38
2018-04-16T00:37:43.842Z,79.38
2018-04-16T00:38:53.935Z,79.38
2018-04-16T00:40:04.227Z,79.38
2018-04-16T00:41:14.313Z,79.58
2018-04-16T00:42:24.394Z,79.38
2018-04-16T00:43:34.479Z,79.1
2018-04-16T00:44:44.567Z,79.19
2018-04-16T00:45:54.648Z,79.28
2018-04-16T00:47:04.471Z,79.19
2018-04-16T00:48:14.545Z,79.28
2018-04-16T00:49:24.365Z,79.58
2018-04-16T00:50:34.454Z,79.28
2018-04-16T00:51:44.558Z,79.38
2018-04-16T00:52:54.380Z,79.58
2018-04-16T00:54:04.213Z,79.58
2018-04-16T00:55:14.322Z,79.58
2018-04-16T00:56:24.420Z,79.44
2018-04-16T00:57:34.245Z,79.38
2018-04-16T00:58:44.320Z,79.38
2018-04-16T00:59:54.151Z,79.38
2018-04-16T01:01:03.962Z,79.48
2018-04-16T01:02:14.050Z,79.67
2018-04-16T01:03:24.131Z,79.1
2018-04-16T01:04:34.212Z,79.58
2018-04-16T01:05:44.019Z,79.58
2018-04-16T01:06:53.869Z,79.28
2018-04-16T01:08:03.947Z,79.38
2018-04-16T01:09:13.781Z,79.38
2018-04-16T01:10:23.846Z,79.35
2018-04-16T01:11:33.932Z,79.58
2018-04-16T01:12:43.796Z,79.48
2018-04-16T01:13:53.873Z,79.28
2018-04-16T01:15:03.961Z,79.38
2018-04-16T01:16:13.786Z,79.48
2018-04-16T01:17:23.604Z,79.58
2018-04-16T01:18:33.697Z,79.38
2018-04-16T01:19:43.539Z,79.28
2018-04-16T01:20:53.617Z,79.48
2018-04-16T01:22:03.436Z,79.38
2018-04-16T01:23:13.534Z,79.44
2018-04-16T01:24:23.375Z,79.53
2018-04-16T01:25:33.190Z,79.25
2018-04-16T01:26:43.006Z,79.05
2018-04-16T01:27:53.065Z,79.44
2018-04-16T01:29:03.134Z,79.05
2018-04-16T01:30:13.268Z,79.35
2018-04-16T01:31:23.084Z,79.25
2018-04-16T01:32:33.203Z,79.53
2018-04-16T01:33:43.043Z,79.25
2018-04-16T01:34:53.125Z,79.25
2018-04-16T01:36:02.956Z,79.25
2018-04-16T01:37:12.779Z,79.28
2018-04-16T01:38:22.876Z,79.63
2018-04-16T01:39:32.699Z,79.25
2018-04-16T01:40:42.509Z,79.44
2018-04-16T01:41:52.329Z,79.44
2018-04-16T01:43:02.411Z,79.35
2018-04-16T01:44:12.219Z,79.35
2018-04-16T01:45:22.291Z,79.53
2018-04-16T01:46:32.378Z,79.35
2018-04-16T01:47:42.468Z,79.35
2018-04-16T01:48:52.289Z,79.53
2018-04-16T01:50:02.379Z,79.53
2018-04-16T01:51:12.482Z,79.53
2018-04-16T01:52:22.301Z,79.67
2018-04-16T01:53:32.125Z,79.48
2018-04-16T01:54:41.962Z,79.35
2018-04-16T01:55:52.036Z,79.44
2018-04-16T01:57:02.129Z,79.25
2018-04-16T01:58:12.231Z,79.44
2018-04-16T01:59:22.044Z,79.38
2018-04-16T02:00:32.132Z,79.44
2018-04-16T02:01:42.204Z,79.44
2018-04-16T02:02:52.279Z,79.35
2018-04-16T02:04:02.358Z,79.44
2018-04-16T02:05:12.500Z,79.38
2018-04-16T02:06:22.586Z,79.63
2018-04-16T02:07:32.473Z,79.15
2018-04-16T02:08:42.551Z,79.35
2018-04-16T02:09:52.629Z,79.15
2018-04-16T02:11:02.760Z,79.25
2018-04-16T02:12:12.571Z,79.25
2018-04-16T02:13:22.375Z,79.35
2018-04-16T02:14:32.481Z,79.35
2018-04-16T02:15:42.576Z,79.05
2018-04-16T02:16:52.386Z,79.25
2018-04-16T02:18:02.467Z,79.35
2018-04-16T02:19:12.557Z,79.25
2018-04-16T02:20:22.649Z,79.35
2018-04-16T02:21:32.751Z,79.25
2018-04-16T02:22:42.629Z,79.44
2018-04-16T02:23:52.446Z,79.35
2018-04-16T02:25:02.515Z,79.35
2018-04-16T02:26:12.597Z,79.25
2018-04-16T02:27:22.699Z,79.05
2018-04-16T02:28:32.794Z,78.96
2018-04-16T02:29:42.877Z,79.35
2018-04-16T02:30:52.963Z,79.44
2018-04-16T02:32:03.051Z,79.35
2018-04-16T02:33:13.123Z,79.05
2018-04-16T02:34:23.234Z,79.35
2018-04-16T02:35:33.312Z,79.53
2018-04-16T02:36:43.399Z,78.86
2018-04-16T02:37:53.222Z,79.53
2018-04-16T02:39:03.046Z,79.3
2018-04-16T02:40:13.124Z,79.4
2018-04-16T02:41:22.935Z,79.35
2018-04-16T02:42:33.064Z,79.21
2018-04-16T02:43:42.899Z,79.02
2018-04-16T02:44:52.721Z,79.5
2018-04-16T02:46:02.817Z,79.3
2018-04-16T02:47:12.909Z,79.6
2018-04-16T02:48:22.999Z,79.4
2018-04-16T02:49:33.092Z,79.4
2018-04-16T02:50:43.214Z,79.3
2018-04-16T02:51:53.322Z,79.6
2018-04-16T02:53:02.860Z,79.6
2018-04-16T02:54:12.671Z,79.69
2018-04-16T02:55:22.746Z,79.6
2018-04-16T02:56:32.823Z,79.98
2018-04-16T02:57:42.913Z,79.3
2018-04-16T02:58:53.004Z,79.46
2018-04-16T03:00:02.831Z,79.55
2018-04-16T03:01:12.648Z,79.46
2018-04-16T03:33:36.783Z,75.71
2018-04-16T03:34:46.342Z,76.48
2018-04-16T03:35:56.161Z,77.15
2018-04-16T03:37:06.240Z,77.82
2018-04-16T03:38:16.329Z,78.3
2018-04-16T03:39:26.449Z,78.78
2018-04-16T03:40:36.536Z,79.26
2018-04-16T03:41:46.612Z,79.36
2018-04-16T03:42:56.693Z,79.11
2018-04-16T03:44:06.525Z,79.59
2018-04-16T03:45:16.659Z,79.78
2018-04-16T03:46:26.487Z,79.78
2018-04-16T03:47:36.311Z,79.68
2018-04-16T03:48:46.109Z,79.59
2018-04-16T03:49:55.916Z,79.44
2018-04-16T03:51:06.002Z,79.82
2018-04-16T03:52:16.094Z,79.82
2018-04-16T03:53:25.921Z,79.44
2018-04-16T03:54:35.996Z,79.44
2018-04-16T03:55:46.108Z,79.72
2018-04-16T03:56:55.931Z,79.53
2018-04-16T03:58:06.010Z,79.67
2018-04-16T03:59:16.081Z,79.76
2018-04-16T04:00:25.906Z,79.76
2018-04-16T04:01:35.716Z,79.96
2018-04-16T04:02:45.789Z,80.05
2018-04-16T04:03:55.611Z,79.67
2018-04-16T04:05:05.707Z,79.67
2018-04-16T04:06:15.526Z,79.71
2018-04-16T04:07:25.607Z,79.13
2018-04-16T04:08:35.704Z,79.32
2018-04-16T04:09:45.790Z,79.61
2018-04-16T04:10:55.871Z,79.22
2018-04-16T04:12:05.958Z,79.13
2018-04-16T04:13:16.039Z,78.94
2018-04-16T04:14:26.141Z,79.13
2018-04-16T04:15:35.970Z,79.13
2018-04-16T04:16:46.044Z,79.13
2018-04-16T04:17:55.886Z,79.13
2018-04-16T04:19:05.989Z,79.27
2018-04-16T04:20:16.138Z,79.22
2018-04-16T04:21:26.228Z,79.52
2018-04-16T04:22:36.320Z,79.27
2018-04-16T04:23:46.395Z,79.27
2018-04-16T04:24:56.288Z,79.17
2018-04-16T04:26:06.420Z,79.27
2018-04-16T04:27:16.488Z,79.27
2018-04-16T04:28:26.563Z,79.46
2018-04-16T04:29:36.398Z,79.46
2018-04-16T04:30:46.506Z,79.27
2018-04-16T04:31:56.590Z,79.27
2018-04-16T04:33:06.673Z,79.55
2018-04-16T04:34:16.763Z,79.07
2018-04-16T04:35:26.837Z,79.17
2018-04-16T04:36:36.923Z,79.07
2018-04-16T04:37:47.054Z,78.98
2018-04-16T04:38:57.119Z,79.07
2018-04-16T04:40:07.220Z,79.21
2018-04-16T04:41:17.029Z,78.88
2018-04-16T04:42:27.113Z,78.92
2018-04-16T04:43:36.674Z,78.83
2018-04-16T04:44:46.744Z,79.11
2018-04-16T04:45:56.833Z,78.92
2018-04-16T04:47:06.931Z,78.83
2018-04-16T04:48:17.014Z,78.73
2018-04-16T04:49:26.868Z,78.83
2018-04-16T04:50:36.716Z,78.92
2018-04-16T04:51:46.534Z,78.73
2018-04-16T04:52:56.697Z,78.73
2018-04-16T04:54:06.675Z,78.73
2018-04-16T04:55:16.646Z,78.73
2018-04-16T04:56:26.747Z,78.73
2018-04-16T04:57:36.842Z,78.86
2018-04-16T04:58:46.952Z,78.77
2018-04-16T04:59:56.784Z,78.77
2018-04-16T05:01:06.406Z,78.77
2018-04-16T05:02:16.216Z,79.15
2018-04-16T05:03:26.307Z,78.77
2018-04-16T05:04:36.403Z,79.05
2018-04-16T05:05:46.482Z,78.96
2018-04-16T05:06:56.326Z,79.05
2018-04-16T05:08:06.411Z,79.05
2018-04-16T05:09:16.510Z,79.25
2018-04-16T05:10:26.343Z,78.96
2018-04-16T05:11:36.428Z,79.15
2018-04-16T05:12:46.268Z,79.05
2018-04-16T05:13:56.094Z,79.15
2018-04-16T05:15:05.919Z,79.05
2018-04-16T05:16:15.997Z,78.96
2018-04-16T05:17:26.102Z,78.86
2018-04-16T05:18:36.224Z,78.86
2018-04-16T05:19:46.311Z,79.05
2018-04-16T05:20:56.396Z,78.77
2018-04-16T05:22:06.248Z,78.86
2018-04-16T05:23:16.326Z,79.05
2018-04-16T05:24:26.402Z,79.15
2018-04-16T05:25:36.489Z,79.25
2018-04-16T05:26:46.637Z,79.25
2018-04-16T05:27:56.712Z,79.05
2018-04-16T05:29:06.523Z,79.15
2018-04-16T05:30:16.581Z,79.05
2018-04-16T05:31:26.143Z,78.86
2018-04-16T05:32:36.391Z,78.86
2018-04-16T05:33:46.210Z,78.96
2018-04-16T05:34:56.279Z,79.02
2018-04-16T05:36:06.108Z,79.53
2018-04-16T05:37:16.188Z,79.11
2018-04-16T05:38:26.264Z,79.4
2018-04-16T05:39:36.361Z,79.11
2018-04-16T05:40:46.434Z,79.3
2018-04-16T05:41:56.528Z,79.21
2018-04-16T05:43:06.645Z,79.5
2018-04-16T05:44:16.528Z,79.3
2018-04-16T05:45:26.635Z,79.11
2018-04-16T05:46:36.705Z,79.4
2018-04-16T05:47:46.816Z,78.86
2018-04-16T05:48:56.875Z,78.96
2018-04-16T05:50:06.724Z,79.35
2018-04-16T05:51:16.811Z,79.15
2018-04-16T05:52:26.914Z,78.77
2018-04-16T05:53:37.017Z,78.77
2018-04-16T05:54:47.089Z,79.05
2018-04-16T05:55:57.167Z,79.05
2018-04-16T05:57:07.263Z,78.96
2018-04-16T05:58:17.347Z,78.96
2018-04-16T05:59:27.433Z,79.25
2018-04-16T06:00:37.532Z,79.35
2018-04-16T06:01:47.619Z,78.67
2018-04-16T06:02:57.700Z,78.61
2018-04-16T06:04:07.521Z,78.61
2018-04-16T06:05:17.603Z,78.23
2018-04-16T06:06:27.695Z,78.71
2018-04-16T06:07:37.850Z,78.42
2018-04-16T06:08:47.939Z,78.42
2018-04-16T06:09:58.014Z,78.52
2018-04-16T06:11:08.149Z,78.65
2018-04-16T06:12:17.995Z,78.56
2018-04-16T06:13:28.175Z,78.36
2018-04-16T06:14:38.380Z,78.36
2018-04-16T06:15:48.460Z,78.27
2018-04-16T06:16:58.547Z,78.46
2018-04-16T06:18:08.625Z,78.65
2018-04-16T06:19:18.454Z,78.46
2018-04-16T06:20:28.568Z,78.21
2018-04-16T06:21:38.666Z,78.46
2018-04-16T06:22:48.727Z,78.31
2018-04-16T06:23:58.284Z,78.02
2018-04-16T06:25:08.430Z,77.67
2018-04-16T06:26:18.552Z,77.67
2018-04-16T06:27:28.927Z,77.9
2018-04-16T06:28:39.140Z,77.51
2018-04-16T06:29:48.967Z,77.33
2018-04-16T06:30:58.799Z,77.23
2018-04-16T06:32:08.875Z,77.75
2018-04-16T06:33:18.971Z,77.07
2018-04-16T06:34:29.061Z,77.17
2018-04-16T06:35:38.885Z,77.07
2018-04-16T06:36:49.058Z,77.21
2018-04-16T06:37:59.426Z,77.11
2018-04-16T06:39:09.283Z,77.11
2018-04-16T06:40:19.386Z,77.3
2018-04-16T06:41:29.472Z,77.3
2018-04-16T06:42:39.620Z,77.01
2018-04-16T06:43:49.756Z,77.5
2018-04-16T06:44:59.589Z,76.92
2018-04-16T06:46:09.430Z,77.25
2018-04-16T06:47:19.532Z,76.86
2018-04-16T06:48:29.090Z,76.86
2018-04-16T06:49:39.180Z,76.76
2018-04-16T06:50:49.274Z,77.19
2018-04-16T06:51:59.385Z,77
2018-04-16T06:53:09.213Z,76.7
2018-04-16T06:54:19.458Z,76.8
2018-04-16T06:55:28.747Z,76.8
2018-04-16T06:56:38.850Z,76.8
2018-04-16T06:57:49.001Z,76.7
2018-04-16T06:58:58.821Z,76.8
2018-04-16T07:00:08.973Z,76.8
2018-04-16T07:01:19.135Z,77
2018-04-16T07:02:29.295Z,77.57
2018-04-16T07:03:39.130Z,77.28
2018-04-16T07:04:48.999Z,77.19
2018-04-16T07:07:38.007Z,77.8
2018-04-16T07:08:47.830Z,77.8
2018-04-16T07:09:57.654Z,77.61
2018-04-16T07:11:22.506Z,77.51
2018-04-16T07:12:32.583Z,77.61
2018-04-16T07:13:42.397Z,77.57
2018-04-16T07:14:52.471Z,77.76
2018-04-16T07:16:02.143Z,77.86
2018-04-16T07:17:12.186Z,77.86
2018-04-16T07:18:22.302Z,77.67
2018-04-16T07:19:32.149Z,77.67
2018-04-16T07:20:42.229Z,77.8
2018-04-16T07:21:52.327Z,77.32
2018-04-16T07:23:02.466Z,77.42
2018-04-16T07:24:12.581Z,76.93
2018-04-16T07:25:22.860Z,76.97
2018-04-16T07:26:32.936Z,76.59
2018-04-16T07:27:43.052Z,76.78
2018-04-16T07:28:52.913Z,77.07
2018-04-16T07:30:02.741Z,76.87
2018-04-16T07:31:12.825Z,77.07
2018-04-16T07:32:22.907Z,76.59
2018-04-16T07:33:33.118Z,76.68
2018-04-16T07:34:58.110Z,76.97
2018-04-16T07:36:08.202Z,76.87
2018-04-16T07:37:18.275Z,77.11
2018-04-16T07:38:28.372Z,76.91
2018-04-16T07:39:38.455Z,76.72
2018-04-16T07:40:48.580Z,76.66
2018-04-16T07:41:58.387Z,76.37
2018-04-16T07:43:08.208Z,76.08
2018-04-16T07:44:18.293Z,75.92
2018-04-16T07:45:28.439Z,75.92
2018-04-16T07:46:38.304Z,76.35
2018-04-16T07:47:48.121Z,75.28
2018-04-16T07:48:58.279Z,75.13
2018-04-16T07:50:08.508Z,75.13
2018-04-16T07:51:18.332Z,75.03
2018-04-16T07:54:07.298Z,75.32
2018-04-16T07:55:17.399Z,75.23
2018-04-16T07:56:27.229Z,76.1
2018-04-16T07:57:37.334Z,76.1
2018-04-16T07:58:47.472Z,76.48
2018-04-16T07:59:57.029Z,76.74
2018-04-16T08:01:06.837Z,76.45
2018-04-16T08:02:16.670Z,76.93
2018-04-16T08:03:26.813Z,77.22
2018-04-16T08:04:36.943Z,76.89
2018-04-16T08:05:47.245Z,77.57
2018-04-16T08:06:57.348Z,77.96
2018-04-16T08:08:07.461Z,77.82
2018-04-16T08:09:17.621Z,77.82
2018-04-16T08:10:27.742Z,77.63
2018-04-16T08:11:37.850Z,77.73
2018-04-16T08:12:47.939Z,77.82
2018-04-16T08:13:58.034Z,77.82
2018-04-16T08:15:08.055Z,77.82
2018-04-16T08:16:17.904Z,77.63
2018-04-16T08:17:28.172Z,77.34
2018-04-16T08:18:38.287Z,77.34
2018-04-16T08:19:48.384Z,77.53
2018-04-16T08:20:58.222Z,77.82
2018-04-16T08:22:08.309Z,77.34
2018-04-16T08:23:18.020Z,78.08
2018-04-16T08:24:28.380Z,77.78
2018-04-16T08:25:38.245Z,78.36
2018-04-16T08:26:49.618Z,78.13
2018-04-16T08:27:59.721Z,78.91
2018-04-16T08:29:09.794Z,78.38
2018-04-16T08:30:19.891Z,78.77
2018-04-16T08:33:24.045Z,78.64
2018-04-16T08:34:34.292Z,78.54
2018-04-16T08:35:43.856Z,78.54
2018-04-16T08:36:53.996Z,78.44
2018-04-16T08:38:04.095Z,78.06
2018-04-16T08:39:23.569Z,78.44
2018-04-16T08:40:33.743Z,78.25
2018-04-16T08:41:44.622Z,78.09
2018-04-16T08:42:55.223Z,77.9
2018-04-16T08:44:05.570Z,77.61
2018-04-16T08:45:15.391Z,77.8
2018-04-16T08:46:40.192Z,77.71
2018-04-16T08:47:50.293Z,77.26
2018-04-16T08:49:00.122Z,77.55
2018-04-16T08:50:09.958Z,77.75
2018-04-16T08:51:20.055Z,77.75
2018-04-16T08:52:30.253Z,77.65
2018-04-16T08:53:40.481Z,77.65
2018-04-16T08:54:50.580Z,77.55
2018-04-16T08:56:00.419Z,77.45
2018-04-16T08:57:10.268Z,77.26
2018-04-16T08:58:20.092Z,77.3
2018-04-16T08:59:30.263Z,76.72
2018-04-16T09:00:40.560Z,77.2
2018-04-16T09:01:50.327Z,77.01
2018-04-16T09:03:00.461Z,77.24
2018-04-16T09:04:10.563Z,77.05
2018-04-16T09:05:20.671Z,76.66
2018-04-16T09:06:30.802Z,76.79
2018-04-16T09:07:40.905Z,76.79
2018-04-16T09:08:50.890Z,76.79
2018-04-16T09:10:01.043Z,76.79
2018-04-16T09:11:11.160Z,76.99
2018-04-16T09:12:21.262Z,76.79
2018-04-16T09:13:31.357Z,76.79
2018-04-16T09:14:41.236Z,76.93
2018-04-16T09:15:51.344Z,76.74
2018-04-16T09:17:01.453Z,76.83
2018-04-16T09:18:11.291Z,77.32
2018-04-16T09:19:21.420Z,76.93
2018-04-16T09:20:31.517Z,76.83
2018-04-16T09:21:41.403Z,76.48
2018-04-16T09:22:51.522Z,76.48
2018-04-16T09:24:01.631Z,76.19
2018-04-16T09:25:11.733Z,76.42
2018-04-16T09:26:21.878Z,76.04
2018-04-16T09:27:31.992Z,76.23
2018-04-16T09:28:42.304Z,76.23
2018-04-16T09:29:52.132Z,76.27
2018-04-16T09:31:02.243Z,76.07
2018-04-16T09:32:12.326Z,75.88
2018-04-16T09:33:22.396Z,76.07
2018-04-16T09:34:32.484Z,75.98
2018-04-16T09:35:42.577Z,76.01
2018-04-16T09:36:52.665Z,75.53
2018-04-16T09:38:02.823Z,75.47
2018-04-16T09:39:13.047Z,75.37
2018-04-16T09:40:23.151Z,75.27
2018-04-16T09:41:33.250Z,75.27
2018-04-16T09:42:43.336Z,75.27
2018-04-16T09:43:53.432Z,75.41
2018-04-16T09:45:03.520Z,75.41
2018-04-16T09:46:13.621Z,75.41
2018-04-16T09:47:23.726Z,75.54
2018-04-16T09:48:33.812Z,75.15
2018-04-16T09:49:43.948Z,75.15
2018-04-16T09:50:54.058Z,74.9
2018-04-16T09:52:03.900Z,74.99
2018-04-16T09:53:13.983Z,75.38
2018-04-16T09:54:23.803Z,75.68
2018-04-16T09:55:33.941Z,75.29
2018-04-16T09:56:43.776Z,75.09
2018-04-16T09:57:53.876Z,75.29
2018-04-16T09:59:03.969Z,75.58
2018-04-16T10:00:13.801Z,75.19
2018-04-16T10:01:24.050Z,75.68
2018-04-16T10:02:34.383Z,75.32
2018-04-16T10:03:44.238Z,75.23
2018-04-16T10:04:54.082Z,75.32
2018-04-16T10:06:04.270Z,75.42
2018-04-16T10:07:14.430Z,75.52
2018-04-16T10:08:24.527Z,75.23
2018-04-16T10:09:34.602Z,75.42
2018-04-16T10:10:44.696Z,75.23
2018-04-16T10:11:54.899Z,74.84
2018-04-16T10:13:05.035Z,74.97
2018-04-16T10:14:15.123Z,75.07
2018-04-16T10:15:25.236Z,75.07
2018-04-16T10:16:35.339Z,75.2
2018-04-16T10:17:45.440Z,75.07
2018-04-16T10:18:55.583Z,75.36
2018-04-16T10:20:05.417Z,75.26
2018-04-16T10:21:15.516Z,75.75
2018-04-16T10:22:25.627Z,75.62
2018-04-16T10:23:35.739Z,75.42
2018-04-16T10:24:45.845Z,75.32
2018-04-16T10:25:55.951Z,75.62
2018-04-16T10:27:05.791Z,75.62
2018-04-16T10:28:15.876Z,75.42
2018-04-16T10:29:26.059Z,75.23
2018-04-16T10:30:36.193Z,75.42
2018-04-16T10:31:46.295Z,75.32
2018-04-16T10:32:56.384Z,75.09
2018-04-16T10:34:06.500Z,75.48
2018-04-16T10:35:16.829Z,75.38
2018-04-16T10:36:26.923Z,74.9
2018-04-16T10:37:37.041Z,74.9
2018-04-16T10:38:46.649Z,74.9
2018-04-16T10:39:56.753Z,74.65
2018-04-16T10:41:06.943Z,74.84
2018-04-16T10:42:16.913Z,74.74
2018-04-16T10:43:27.004Z,74.65
2018-04-16T10:44:37.101Z,74.84
2018-04-16T10:45:47.204Z,74.65
2018-04-16T10:46:57.396Z,74.93
2018-04-16T10:48:07.240Z,74.55
2018-04-16T10:49:17.343Z,74.45
2018-04-16T10:50:27.453Z,74.35
2018-04-16T10:51:37.583Z,74.45
2018-04-16T10:52:47.681Z,74.74
2018-04-16T10:53:57.818Z,74.65
2018-04-16T10:55:07.387Z,74.84
2018-04-16T10:56:16.957Z,74.55
2018-04-16T10:57:26.813Z,74.55
2018-04-16T10:58:36.944Z,75.03
2018-04-16T10:59:47.129Z,74.93
2018-04-16T11:00:57.554Z,75.03
2018-04-16T11:02:07.771Z,74.55
2018-04-16T11:03:17.976Z,74.65
2018-04-16T11:04:28.069Z,74.74
2018-04-16T11:05:38.207Z,75.13
2018-04-16T11:06:48.330Z,75.03
2018-04-16T11:07:58.430Z,74.51
2018-04-16T11:09:08.280Z,74.35
2018-04-16T11:10:18.118Z,74.55
2018-04-16T11:11:28.227Z,74.74
2018-04-16T11:12:38.342Z,74.84
2018-04-16T11:13:48.452Z,74.65
2018-04-16T11:14:58.534Z,74.49
2018-04-16T11:16:08.629Z,74.1
2018-04-16T11:17:18.527Z,74
2018-04-16T11:18:28.648Z,74
2018-04-16T11:19:38.762Z,73.9
2018-04-16T11:20:48.596Z,74.1
2018-04-16T11:21:58.712Z,74
2018-04-16T11:23:08.585Z,74.23
2018-04-16T11:24:18.682Z,74
2018-04-16T11:25:28.774Z,74
2018-04-16T11:26:38.869Z,74.68
2018-04-16T11:27:49.016Z,74.78
2018-04-16T11:28:59.127Z,74.58
2018-04-16T11:30:09.242Z,74.78
2018-04-16T11:31:19.405Z,75.26
2018-04-16T11:32:29.509Z,75.26
2018-04-16T11:33:39.616Z,74.97
2018-04-16T11:34:49.716Z,75.07
2018-04-16T11:35:59.808Z,75.26
2018-04-16T11:37:09.643Z,75.07
2018-04-16T11:38:19.760Z,74.84
2018-04-16T11:39:29.869Z,75.03
2018-04-16T11:40:40.001Z,75.03
2018-04-16T11:41:50.107Z,74.45
2018-04-16T11:43:00.227Z,74.35
2018-04-16T11:44:10.348Z,74.74
2018-04-16T11:45:20.457Z,74.35
2018-04-16T11:46:30.283Z,74.84
2018-04-16T11:47:40.408Z,74.39
2018-04-16T11:48:50.246Z,73.9
2018-04-16T11:50:00.341Z,74.29
2018-04-16T11:51:10.445Z,74.19
2018-04-16T11:52:20.438Z,74
2018-04-16T11:53:30.524Z,74.49
2018-04-16T11:54:40.366Z,74.45
2018-04-16T11:55:50.493Z,74.35
2018-04-16T11:57:00.596Z,74.55
2018-04-16T11:58:10.780Z,74.93
2018-04-16T11:59:20.909Z,75.32
2018-04-16T12:00:30.770Z,75.48
2018-04-16T12:01:40.319Z,75.48
2018-04-16T12:02:50.423Z,75.68
2018-04-16T12:04:00.575Z,75.74
2018-04-16T12:05:10.409Z,75.64
2018-04-16T12:06:20.519Z,75.64
2018-04-16T12:07:30.633Z,76.42
2018-04-16T12:08:40.780Z,76.42
2018-04-16T12:09:50.932Z,76.09
2018-04-16T12:11:00.769Z,75.99
2018-04-16T12:12:11.113Z,75.99
2018-04-16T12:13:21.307Z,76.28
2018-04-16T12:14:31.416Z,75.51
2018-04-16T12:15:41.597Z,75.6
2018-04-16T12:16:51.702Z,75.31
2018-04-16T12:18:01.545Z,75.76
2018-04-16T12:19:11.674Z,75.57
2018-04-16T12:20:21.524Z,76.05
2018-04-16T12:21:31.661Z,76.11
2018-04-16T12:22:41.761Z,76.01
2018-04-16T12:23:51.905Z,76.27
2018-04-16T12:25:02.044Z,76.17
2018-04-16T12:26:12.155Z,76.07
2018-04-16T12:27:22.334Z,76.17
2018-04-16T12:28:32.515Z,75.98
2018-04-16T12:29:42.663Z,76.46
2018-04-16T12:30:52.613Z,76.81
2018-04-16T12:32:02.448Z,76.62
2018-04-16T12:33:12.658Z,76.72
2018-04-16T12:34:22.489Z,76.87
2018-04-16T12:35:32.587Z,76.68
2018-04-16T12:36:42.663Z,76.39
2018-04-16T12:37:52.550Z,76.58
2018-04-16T12:39:02.736Z,76.83
2018-04-16T12:40:13.026Z,76.74
2018-04-16T12:41:22.889Z,77.03
2018-04-16T12:42:32.723Z,76.74
2018-04-16T12:43:42.844Z,76.93
2018-04-16T12:44:52.952Z,77.22
2018-04-16T12:46:03.055Z,77.09
2018-04-16T12:47:13.153Z,77.09
2018-04-16T12:48:23.259Z,76.89
2018-04-16T12:49:33.448Z,76.99
2018-04-16T12:50:43.587Z,77.24
2018-04-16T12:51:53.689Z,77.14
2018-04-16T12:53:03.531Z,77.05
2018-04-16T12:54:13.376Z,77.28
2018-04-16T12:55:23.198Z,77.14
2018-04-16T12:56:33.292Z,76.7
2018-04-16T12:57:43.377Z,76.66
2018-04-16T12:58:53.481Z,76.79
2018-04-16T13:00:03.571Z,76.7
2018-04-16T13:01:13.667Z,76.31
2018-04-16T13:02:23.856Z,76.7
2018-04-16T13:03:33.946Z,76.76
2018-04-16T13:04:43.777Z,76.76
2018-04-16T13:05:53.853Z,76.76
2018-04-16T13:07:03.943Z,76.76
2018-04-16T13:08:14.096Z,76.99
2018-04-16T13:09:24.197Z,76.66
2018-04-16T13:10:34.292Z,76.79
2018-04-16T13:11:44.122Z,76.66
2018-04-16T13:12:53.687Z,77.14
2018-04-16T13:14:03.846Z,76.56
2018-04-16T13:15:13.950Z,77.05
2018-04-16T13:16:23.780Z,76.66
2018-04-16T13:17:33.612Z,76.66
2018-04-16T13:18:43.707Z,76.95
2018-04-16T13:19:53.814Z,76.46
2018-04-16T13:21:03.901Z,76.7
2018-04-16T13:22:14.010Z,76.41
2018-04-16T13:23:24.098Z,76.31
2018-04-16T13:24:34.195Z,76.41
2018-04-16T13:25:44.114Z,75.92
2018-04-16T13:26:54.182Z,76.15
2018-04-16T13:28:04.259Z,75.92
2018-04-16T13:29:14.077Z,76.64
2018-04-16T13:30:24.175Z,76.51
2018-04-16T13:31:34.268Z,76.64
2018-04-16T13:32:44.379Z,76.54
2018-04-16T13:33:53.940Z,76.25
2018-04-16T13:35:04.017Z,75.96
2018-04-16T13:36:14.112Z,75.96
2018-04-16T13:37:24.216Z,75.71
2018-04-16T13:38:34.325Z,75.9
2018-04-16T13:39:44.416Z,76
2018-04-16T13:40:54.504Z,75.9
2018-04-16T13:42:04.622Z,75.81
2018-04-16T13:43:14.250Z,76
2018-04-16T13:44:24.362Z,76.1
2018-04-16T13:45:33.935Z,76.19
2018-04-16T13:46:44.020Z,76.19
2018-04-16T13:47:54.132Z,75.9
2018-04-16T13:49:04.286Z,75.9
2018-04-16T13:50:14.361Z,76
2018-04-16T13:51:24.465Z,76.1
2018-04-16T13:52:34.574Z,76.48
2018-04-16T13:53:44.642Z,76.87
2018-04-16T13:54:54.713Z,76.25
2018-04-16T13:56:04.540Z,76.74
2018-04-16T13:57:14.626Z,77.09
2018-04-16T13:58:24.442Z,77.19
2018-04-16T13:59:34.532Z,77.19
2018-04-16T14:00:44.361Z,77.28
2018-04-16T14:01:54.200Z,77.09
2018-04-16T14:03:04.311Z,77.14
2018-04-16T14:04:14.389Z,77.05
2018-04-16T14:05:24.481Z,77.53
2018-04-16T14:06:34.593Z,77.5
2018-04-16T14:07:44.681Z,77.59
2018-04-16T14:08:54.751Z,77.2
2018-04-16T14:10:04.859Z,77.5
2018-04-16T14:11:14.675Z,77.88
2018-04-16T14:12:24.855Z,77.5
2018-04-16T14:13:34.667Z,77.45
2018-04-16T14:14:44.628Z,77.26
2018-04-16T14:15:54.721Z,77.36
2018-04-16T14:17:04.533Z,77.11
2018-04-16T14:18:14.622Z,76.87
2018-04-16T14:19:24.720Z,76.82
2018-04-16T14:20:34.806Z,76.87
2018-04-16T14:21:44.634Z,76.82
2018-04-16T14:22:54.731Z,76.87
2018-04-16T14:24:04.823Z,77.45
2018-04-16T14:25:14.394Z,77.65
2018-04-16T14:26:24.477Z,77.45
2018-04-16T14:27:34.308Z,77.42
2018-04-16T14:28:44.402Z,78
2018-04-16T14:29:54.522Z,77.61
2018-04-16T14:31:04.599Z,78
2018-04-16T14:32:14.670Z,77.8
2018-04-16T14:33:24.227Z,78.25
2018-04-16T14:34:34.322Z,78.06
2018-04-16T14:35:44.509Z,78.25
2018-04-16T14:36:54.058Z,78.15
2018-04-16T14:38:04.127Z,78.25
2018-04-16T14:39:13.966Z,77.86
2018-04-16T14:40:23.797Z,77.76
2018-04-16T14:41:33.894Z,78.25
2018-04-16T14:42:43.972Z,77.76
2018-04-16T14:43:54.066Z,78.15
2018-04-16T14:45:03.881Z,78.54
2018-04-16T14:46:13.971Z,78.11
2018-04-16T14:47:23.790Z,78.02
2018-04-16T14:48:33.871Z,78.11
2018-04-16T14:49:43.965Z,77.92
2018-04-16T14:50:54.056Z,78.02
2018-04-16T14:52:03.894Z,77.98
2018-04-16T14:53:13.987Z,77.98
2018-04-16T14:54:24.098Z,77.98
2018-04-16T14:55:33.929Z,77.98
2018-04-16T14:56:43.803Z,77.88
2018-04-16T14:57:54.098Z,77.88
2018-04-16T14:59:04.283Z,78.17
2018-04-16T15:00:14.368Z,78.08
2018-04-16T15:01:24.225Z,78.08
2018-04-16T15:02:34.051Z,78.08
2018-04-16T15:03:43.623Z,78.27
2018-04-16T15:04:53.760Z,78.27
2018-04-16T15:06:03.857Z,78.17
2018-04-16T15:07:13.936Z,77.98
2018-04-16T15:08:24.042Z,77.98
2018-04-16T15:09:34.141Z,77.94
2018-04-16T15:10:43.984Z,78.61
2018-04-16T15:11:53.789Z,78.61
2018-04-16T15:13:03.636Z,78.23
2018-04-16T15:14:13.739Z,78.52
2018-04-16T15:15:23.576Z,78.33
2018-04-16T15:16:33.727Z,78.52
2018-04-16T15:17:43.024Z,78.33
2018-04-16T15:18:53.116Z,78.58
2018-04-16T15:20:03.213Z,78.29
2018-04-16T15:21:13.289Z,78.38
2018-04-16T15:22:22.888Z,78.48
2018-04-16T15:23:32.985Z,78.38
2018-04-16T15:24:43.050Z,78.29
2018-04-16T15:25:53.156Z,78.48
2018-04-16T15:27:03.364Z,78.48
2018-04-16T15:28:13.532Z,78.19
2018-04-16T15:29:23.363Z,78.19
2018-04-16T15:30:33.476Z,78.58
2018-04-16T15:31:43.306Z,78.48
2018-04-16T15:32:53.126Z,78.38
2018-04-16T15:34:03.293Z,78.48
2018-04-16T15:35:13.399Z,78.67
2018-04-16T15:36:23.240Z,78.54
2018-04-16T15:37:33.316Z,78.73
2018-04-16T15:38:43.405Z,78.58
2018-04-16T15:39:53.523Z,78.54
2018-04-16T15:41:03.629Z,78.63
2018-04-16T15:42:13.463Z,78.63
2018-04-16T15:43:23.577Z,78.34